sensor_id;sensor_type;location;lat;lon;timestamp;P1;durP1;ratioP1;P2;durP2;ratioP2
40588;SDS011;26297;49.450;6.640;2023-05-10T00:05:01;1.55;;;0.70;;
40588;SDS011;26297;49.450;6.640;2023-05-10T00:08:06;0.52;;;0.52;;
40588;SDS011;26297;49.450;6.640;2023-05-10T00:11:10;1.27;;;0.63;;
40588;SDS011;26297;49.450;6.640;2023-05-10T00:14:13;0.60;;;0.60;;
40588;SDS011;26297;49.450;6.640;2023-05-10T00:17:17;1.40;;;0.50;;
40588;SDS011;26297;49.450;6.640;2023-05-10T00:20:26;0.70;;;0.68;;
40588;SDS011;26297;49.450;6.640;2023-05-10T00:24:14;0.60;;;0.60;;
40588;SDS011;26297;49.450;6.640;2023-05-10T00:27:33;0.60;;;0.60;;
40588;SDS011;26297;49.450;6.640;2023-05-10T00:31:22;1.08;;;0.98;;
40588;SDS011;26297;49.450;6.640;2023-05-10T00:34:37;0.75;;;0.75;;
40588;SDS011;26297;49.450;6.640;2023-05-10T00:37:43;2.08;;;0.80;;
40588;SDS011;26297;49.450;6.640;2023-05-10T00:40:51;2.65;;;1.00;;
40588;SDS011;26297;49.450;6.640;2023-05-10T00:43:55;1.60;;;0.98;;
40588;SDS011;26297;49.450;6.640;2023-05-10T00:46:59;1.00;;;1.00;;
40588;SDS011;26297;49.450;6.640;2023-05-10T00:50:15;0.80;;;0.75;;
40588;SDS011;26297;49.450;6.640;2023-05-10T00:53:33;0.70;;;0.70;;
40588;SDS011;26297;49.450;6.640;2023-05-10T00:57:01;1.33;;;0.80;;
40588;SDS011;26297;49.450;6.640;2023-05-10T01:00:18;1.95;;;1.00;;
40588;SDS011;26297;49.450;6.640;2023-05-10T01:03:39;0.93;;;0.88;;
40588;SDS011;26297;49.450;6.640;2023-05-10T01:11:12;0.95;;;0.95;;
40588;SDS011;26297;49.450;6.640;2023-05-10T01:14:36;2.10;;;1.10;;
40588;SDS011;26297;49.450;6.640;2023-05-10T01:17:43;0.95;;;0.90;;
40588;SDS011;26297;49.450;6.640;2023-05-10T01:25:06;1.15;;;1.10;;
40588;SDS011;26297;49.450;6.640;2023-05-10T01:29:38;1.10;;;1.00;;
40588;SDS011;26297;49.450;6.640;2023-05-10T01:35:37;1.10;;;1.10;;
40588;SDS011;26297;49.450;6.640;2023-05-10T01:39:02;1.90;;;1.70;;
40588;SDS011;26297;49.450;6.640;2023-05-10T01:42:32;2.13;;;2.03;;
40588;SDS011;26297;49.450;6.640;2023-05-10T01:49:29;4.40;;;2.17;;
40588;SDS011;26297;49.450;6.640;2023-05-10T01:52:53;2.88;;;2.67;;
40588;SDS011;26297;49.450;6.640;2023-05-10T01:56:23;2.78;;;2.58;;
40588;SDS011;26297;49.450;6.640;2023-05-10T01:59:55;2.58;;;2.38;;
40588;SDS011;26297;49.450;6.640;2023-05-10T02:03:01;3.67;;;2.30;;
40588;SDS011;26297;49.450;6.640;2023-05-10T02:06:09;3.20;;;2.90;;
40588;SDS011;26297;49.450;6.640;2023-05-10T02:12:50;4.47;;;2.50;;
40588;SDS011;26297;49.450;6.640;2023-05-10T02:16:05;2.25;;;2.05;;
40588;SDS011;26297;49.450;6.640;2023-05-10T02:19:37;2.38;;;2.17;;
40588;SDS011;26297;49.450;6.640;2023-05-10T02:22:48;2.67;;;2.35;;
40588;SDS011;26297;49.450;6.640;2023-05-10T02:25:57;2.90;;;2.40;;
40588;SDS011;26297;49.450;6.640;2023-05-10T02:29:06;2.63;;;2.15;;
40588;SDS011;26297;49.450;6.640;2023-05-10T02:32:11;2.22;;;1.83;;
40588;SDS011;26297;49.450;6.640;2023-05-10T02:35:16;2.47;;;1.83;;
40588;SDS011;26297;49.450;6.640;2023-05-10T02:38:23;1.80;;;1.63;;
40588;SDS011;26297;49.450;6.640;2023-05-10T02:42:05;1.75;;;1.65;;
40588;SDS011;26297;49.450;6.640;2023-05-10T02:45:11;2.85;;;2.17;;
40588;SDS011;26297;49.450;6.640;2023-05-10T02:48:24;1.85;;;1.75;;
40588;SDS011;26297;49.450;6.640;2023-05-10T02:51:28;2.05;;;1.60;;
40588;SDS011;26297;49.450;6.640;2023-05-10T02:54:39;1.50;;;1.40;;
40588;SDS011;26297;49.450;6.640;2023-05-10T02:57:52;1.60;;;1.50;;
40588;SDS011;26297;49.450;6.640;2023-05-10T03:01:08;1.92;;;1.20;;
40588;SDS011;26297;49.450;6.640;2023-05-10T03:04:14;1.30;;;1.20;;
40588;SDS011;26297;49.450;6.640;2023-05-10T03:07:37;1.02;;;0.85;;
40588;SDS011;26297;49.450;6.640;2023-05-10T03:10:45;2.33;;;1.10;;
40588;SDS011;26297;49.450;6.640;2023-05-10T03:21:10;2.00;;;1.10;;
40588;SDS011;26297;49.450;6.640;2023-05-10T03:24:19;1.33;;;1.23;;
40588;SDS011;26297;49.450;6.640;2023-05-10T03:27:30;1.63;;;1.10;;
40588;SDS011;26297;49.450;6.640;2023-05-10T03:30:37;1.23;;;1.13;;
40588;SDS011;26297;49.450;6.640;2023-05-10T03:33:48;1.88;;;1.40;;
40588;SDS011;26297;49.450;6.640;2023-05-10T03:36:53;1.30;;;1.20;;
40588;SDS011;26297;49.450;6.640;2023-05-10T03:39:56;2.03;;;1.30;;
40588;SDS011;26297;49.450;6.640;2023-05-10T03:43:00;1.92;;;1.38;;
40588;SDS011;26297;49.450;6.640;2023-05-10T03:46:04;1.40;;;1.30;;
40588;SDS011;26297;49.450;6.640;2023-05-10T03:49:11;1.00;;;1.00;;
40588;SDS011;26297;49.450;6.640;2023-05-10T03:52:15;1.10;;;1.08;;
40588;SDS011;26297;49.450;6.640;2023-05-10T03:55:23;1.35;;;1.02;;
40588;SDS011;26297;49.450;6.640;2023-05-10T03:58:32;1.30;;;1.15;;
40588;SDS011;26297;49.450;6.640;2023-05-10T04:01:36;1.23;;;1.00;;
40588;SDS011;26297;49.450;6.640;2023-05-10T04:04:39;1.35;;;1.25;;
40588;SDS011;26297;49.450;6.640;2023-05-10T04:08:05;1.00;;;0.90;;
40588;SDS011;26297;49.450;6.640;2023-05-10T04:11:11;1.38;;;1.10;;
40588;SDS011;26297;49.450;6.640;2023-05-10T04:14:24;1.63;;;1.02;;
40588;SDS011;26297;49.450;6.640;2023-05-10T04:26:01;1.13;;;0.85;;
40588;SDS011;26297;49.450;6.640;2023-05-10T04:29:51;1.00;;;0.88;;
40588;SDS011;26297;49.450;6.640;2023-05-10T04:33:08;0.88;;;0.80;;
40588;SDS011;26297;49.450;6.640;2023-05-10T04:36:29;1.02;;;0.98;;
40588;SDS011;26297;49.450;6.640;2023-05-10T04:39:47;1.27;;;1.17;;
40588;SDS011;26297;49.450;6.640;2023-05-10T04:43:00;1.92;;;1.00;;
40588;SDS011;26297;49.450;6.640;2023-05-10T04:46:35;2.45;;;1.10;;
40588;SDS011;26297;49.450;6.640;2023-05-10T04:50:03;1.05;;;0.88;;
40588;SDS011;26297;49.450;6.640;2023-05-10T04:53:11;1.58;;;0.70;;
40588;SDS011;26297;49.450;6.640;2023-05-10T04:56:16;0.73;;;0.73;;
40588;SDS011;26297;49.450;6.640;2023-05-10T04:59:26;0.80;;;0.80;;
40588;SDS011;26297;49.450;6.640;2023-05-10T05:02:49;2.28;;;0.75;;
40588;SDS011;26297;49.450;6.640;2023-05-10T05:05:53;1.77;;;0.77;;
40588;SDS011;26297;49.450;6.640;2023-05-10T05:09:18;1.90;;;0.73;;
40588;SDS011;26297;49.450;6.640;2023-05-10T05:12:21;0.73;;;0.73;;
40588;SDS011;26297;49.450;6.640;2023-05-10T05:15:25;1.75;;;0.80;;
40588;SDS011;26297;49.450;6.640;2023-05-10T05:18:28;1.23;;;0.65;;
40588;SDS011;26297;49.450;6.640;2023-05-10T05:26:18;0.73;;;0.73;;
40588;SDS011;26297;49.450;6.640;2023-05-10T05:36:40;0.80;;;0.80;;
40588;SDS011;26297;49.450;6.640;2023-05-10T05:40:04;0.98;;;0.70;;
40588;SDS011;26297;49.450;6.640;2023-05-10T05:43:16;0.73;;;0.63;;
40588;SDS011;26297;49.450;6.640;2023-05-10T05:46:54;1.30;;;0.93;;
40588;SDS011;26297;49.450;6.640;2023-05-10T05:49:57;0.70;;;0.70;;
40588;SDS011;26297;49.450;6.640;2023-05-10T05:53:01;1.08;;;0.98;;
40588;SDS011;26297;49.450;6.640;2023-05-10T05:56:25;1.33;;;1.23;;
40588;SDS011;26297;49.450;6.640;2023-05-10T05:59:57;1.08;;;1.00;;
40588;SDS011;26297;49.450;6.640;2023-05-10T06:03:18;1.05;;;0.88;;
40588;SDS011;26297;49.450;6.640;2023-05-10T06:06:25;0.50;;;0.50;;
40588;SDS011;26297;49.450;6.640;2023-05-10T06:09:46;0.52;;;0.52;;
40588;SDS011;26297;49.450;6.640;2023-05-10T06:12:49;1.27;;;0.60;;
40588;SDS011;26297;49.450;6.640;2023-05-10T06:15:52;1.05;;;0.50;;
40588;SDS011;26297;49.450;6.640;2023-05-10T06:18:56;0.60;;;0.55;;
40588;SDS011;26297;49.450;6.640;2023-05-10T06:22:05;2.25;;;0.60;;
40588;SDS011;26297;49.450;6.640;2023-05-10T06:25:22;0.80;;;0.50;;
40588;SDS011;26297;49.450;6.640;2023-05-10T06:28:34;0.55;;;0.55;;
40588;SDS011;26297;49.450;6.640;2023-05-10T06:31:44;0.30;;;0.30;;
40588;SDS011;26297;49.450;6.640;2023-05-10T06:34:51;1.40;;;0.40;;
40588;SDS011;26297;49.450;6.640;2023-05-10T06:38:01;0.80;;;0.40;;
40588;SDS011;26297;49.450;6.640;2023-05-10T06:41:10;1.75;;;0.43;;
40588;SDS011;26297;49.450;6.640;2023-05-10T06:44:21;0.45;;;0.40;;
40588;SDS011;26297;49.450;6.640;2023-05-10T06:47:38;0.57;;;0.40;;
40588;SDS011;26297;49.450;6.640;2023-05-10T06:54:20;0.40;;;0.40;;
40588;SDS011;26297;49.450;6.640;2023-05-10T06:57:31;0.32;;;0.32;;
40588;SDS011;26297;49.450;6.640;2023-05-10T07:00:38;0.30;;;0.30;;
40588;SDS011;26297;49.450;6.640;2023-05-10T07:08:22;0.20;;;0.20;;
40588;SDS011;26297;49.450;6.640;2023-05-10T07:11:58;0.77;;;0.70;;
40588;SDS011;26297;49.450;6.640;2023-05-10T07:15:38;1.35;;;0.40;;
40588;SDS011;26297;49.450;6.640;2023-05-10T07:27:15;0.50;;;0.50;;
40588;SDS011;26297;49.450;6.640;2023-05-10T07:31:08;0.40;;;0.40;;
40588;SDS011;26297;49.450;6.640;2023-05-10T07:34:11;0.43;;;0.43;;
40588;SDS011;26297;49.450;6.640;2023-05-10T07:37:17;0.50;;;0.38;;
40588;SDS011;26297;49.450;6.640;2023-05-10T07:40:22;0.50;;;0.40;;
40588;SDS011;26297;49.450;6.640;2023-05-10T07:43:32;0.73;;;0.50;;
40588;SDS011;26297;49.450;6.640;2023-05-10T07:46:36;2.08;;;0.40;;
40588;SDS011;26297;49.450;6.640;2023-05-10T07:53:20;0.45;;;0.43;;
40588;SDS011;26297;49.450;6.640;2023-05-10T08:05:05;2.08;;;0.63;;
40588;SDS011;26297;49.450;6.640;2023-05-10T08:35:01;1.95;;;0.73;;
40588;SDS011;26297;49.450;6.640;2023-05-10T08:42:28;2.97;;;0.80;;
40588;SDS011;26297;49.450;6.640;2023-05-10T08:57:26;1.63;;;0.50;;
40588;SDS011;26297;49.450;6.640;2023-05-10T09:05:33;0.70;;;0.70;;
40588;SDS011;26297;49.450;6.640;2023-05-10T09:12:12;2.13;;;0.52;;
40588;SDS011;26297;49.450;6.640;2023-05-10T09:18:36;2.58;;;0.30;;
40588;SDS011;26297;49.450;6.640;2023-05-10T09:34:52;1.23;;;0.60;;
40588;SDS011;26297;49.450;6.640;2023-05-10T09:57:41;1.20;;;0.40;;
40588;SDS011;26297;49.450;6.640;2023-05-10T10:01:14;1.70;;;0.55;;
40588;SDS011;26297;49.450;6.640;2023-05-10T18:26:14;0.60;;;0.28;;
40588;SDS011;26297;49.450;6.640;2023-05-10T18:29:45;1.13;;;0.20;;
40588;SDS011;26297;49.450;6.640;2023-05-10T18:32:54;0.30;;;0.17;;
